createdAt,value
2019-03-01T00:00:59.533Z,32.33
2019-03-01T00:03:37.538Z,29.85
2019-03-01T00:06:35.613Z,31.35
2019-03-01T00:09:33.255Z,37.20
2019-03-01T00:12:21.539Z,38.75
2019-03-01T00:15:22.508Z,46.08
2019-03-01T00:18:20.159Z,38.40
2019-03-01T00:21:12.955Z,41.80
2019-03-01T00:23:48.917Z,40.23
2019-03-01T00:26:28.057Z,43.10
2019-03-01T00:29:24.061Z,35.28
2019-03-01T00:32:15.526Z,54.03
2019-03-01T00:34:54.194Z,52.27
2019-03-01T00:37:38.351Z,37.15
2019-03-01T00:40:31.663Z,36.28
2019-03-01T00:43:30.522Z,42.53
2019-03-01T00:46:03.871Z,52.78
2019-03-01T00:48:42.645Z,45.73
2019-03-01T00:51:15.931Z,39.85
2019-03-01T00:53:51.527Z,36.90
2019-03-01T00:56:25.406Z,51.40
2019-03-01T00:59:00.016Z,44.93
2019-03-01T01:01:33.526Z,64.72
2019-03-01T01:04:08.115Z,49.38
2019-03-01T01:06:41.891Z,57.38
2019-03-01T01:09:15.848Z,41.68
2019-03-01T01:11:50.528Z,51.37
2019-03-01T01:14:25.018Z,49.65
2019-03-01T01:16:59.991Z,54.98
2019-03-01T01:19:34.166Z,63.35
2019-03-01T01:22:11.197Z,49.67
2019-03-01T01:24:46.672Z,41.48
2019-03-01T01:27:25.398Z,46.73
2019-03-01T01:30:01.190Z,69.47
2019-03-01T01:32:38.084Z,68.33
2019-03-01T01:35:12.794Z,65.22
2019-03-01T01:37:46.290Z,67.17
2019-03-01T01:40:19.986Z,47.17
2019-03-01T01:42:53.272Z,65.72
2019-03-01T01:45:27.052Z,24.02
2019-03-01T01:48:00.909Z,71.53
2019-03-01T01:50:35.097Z,68.47
2019-03-01T01:53:09.079Z,40.80
2019-03-01T01:55:42.409Z,62.60
2019-03-01T01:58:16.152Z,54.40
2019-03-01T02:00:50.215Z,57.73
2019-03-01T02:03:23.991Z,64.65
2019-03-01T02:05:58.152Z,67.80
2019-03-01T02:08:32.287Z,50.83
2019-03-01T02:11:07.894Z,61.75
2019-03-01T02:13:41.696Z,59.88
2019-03-01T02:16:15.549Z,74.58
2019-03-01T02:18:57.536Z,64.80
2019-03-01T02:21:24.557Z,54.83
2019-03-01T02:23:58.654Z,65.35
2019-03-01T02:26:32.563Z,66.57
2019-03-01T02:29:06.196Z,58.52
2019-03-01T02:31:43.517Z,51.02
2019-03-01T02:34:18.586Z,66.12
2019-03-01T02:37:11.042Z,66.62
2019-03-01T02:42:18.989Z,38.92
2019-03-01T02:44:53.004Z,53.40
2019-03-01T02:47:46.789Z,65.47
2019-03-01T02:50:21.615Z,55.95
2019-03-01T02:52:57.056Z,48.05
2019-03-01T02:55:31.159Z,35.98
2019-03-01T02:58:06.153Z,52.50
2019-03-01T03:00:38.907Z,25.95
2019-03-01T03:03:12.576Z,31.37
2019-03-01T03:05:50.646Z,46.15
2019-03-01T03:08:24.213Z,39.42
2019-03-01T03:10:59.065Z,84.22
2019-03-01T03:13:32.606Z,70.55
2019-03-01T03:16:10.617Z,47.88
2019-03-01T03:18:44.298Z,60.00
2019-03-01T03:21:25.366Z,19.92
2019-03-01T03:23:59.595Z,58.90
2019-03-01T03:26:35.055Z,47.83
2019-03-01T03:29:09.405Z,44.23
2019-03-01T03:31:44.279Z,50.25
2019-03-01T03:34:17.977Z,54.05
2019-03-01T03:36:52.205Z,53.83
2019-03-01T03:39:31.427Z,47.80
2019-03-01T03:42:05.535Z,42.05
2019-03-01T03:44:40.286Z,59.63
2019-03-01T03:47:15.886Z,43.00
2019-03-01T03:49:50.656Z,47.33
2019-03-01T03:52:24.396Z,61.13
2019-03-01T03:54:58.720Z,31.12
2019-03-01T03:57:32.728Z,23.10
2019-03-01T04:00:06.421Z,10.58
2019-03-01T04:02:40.841Z,51.13
2019-03-01T04:05:19.655Z,54.23
2019-03-01T04:07:54.140Z,48.17
2019-03-01T04:10:27.919Z,42.13
2019-03-01T04:13:02.009Z,40.80
2019-03-01T04:15:35.935Z,30.35
2019-03-01T04:18:11.102Z,6.22
2019-03-01T04:20:44.897Z,42.78
2019-03-01T04:23:18.590Z,44.65
2019-03-01T04:25:52.385Z,55.40
2019-03-01T04:28:27.162Z,34.50
2019-03-01T04:31:02.296Z,47.65
2019-03-01T04:33:36.983Z,45.85
2019-03-01T04:36:10.896Z,46.88
2019-03-01T04:38:45.243Z,13.93
2019-03-01T04:41:18.477Z,35.25
2019-03-01T04:43:52.808Z,35.75
2019-03-01T04:46:26.467Z,13.65
2019-03-01T04:49:01.648Z,18.37
2019-03-01T04:51:40.094Z,44.10
2019-03-01T04:54:11.416Z,21.25
2019-03-01T04:56:45.147Z,23.50
2019-03-01T04:59:19.132Z,27.32
2019-03-01T05:01:52.926Z,5.17
2019-03-01T05:04:26.842Z,9.05
2019-03-01T05:07:00.224Z,8.00
2019-03-01T05:09:34.106Z,1.45
2019-03-01T05:12:09.345Z,11.40
2019-03-01T05:14:43.854Z,3.33
2019-03-01T05:17:17.389Z,22.13
2019-03-01T05:19:51.432Z,11.95
2019-03-01T05:22:25.127Z,17.55
2019-03-01T05:24:59.044Z,10.38
2019-03-01T05:27:32.709Z,14.00
2019-03-01T05:30:07.486Z,14.00
2019-03-01T05:32:41.433Z,4.12
2019-03-01T05:35:15.312Z,7.75
2019-03-01T05:37:49.095Z,14.83
2019-03-01T05:40:23.390Z,7.53
2019-03-01T05:42:57.200Z,3.95
2019-03-01T05:45:31.702Z,29.18
2019-03-01T05:48:06.473Z,14.43
2019-03-01T05:50:40.055Z,12.68
2019-03-01T05:53:14.692Z,5.10
2019-03-01T05:55:50.462Z,5.58
2019-03-01T05:58:34.725Z,22.42
2019-03-01T06:01:27.386Z,8.00
2019-03-01T06:04:05.270Z,8.70
2019-03-01T06:06:58.117Z,4.65
2019-03-01T06:09:42.986Z,3.87
2019-03-01T06:12:52.523Z,8.60
2019-03-01T06:15:53.602Z,14.03
2019-03-01T06:18:35.907Z,17.65
2019-03-01T06:21:12.053Z,7.17
2019-03-01T06:24:09.422Z,28.85
2019-03-01T06:27:18.505Z,21.90
2019-03-01T06:30:28.315Z,37.20
2019-03-01T06:33:18.674Z,7.33
2019-03-01T06:36:09.539Z,16.12
2019-03-01T06:39:08.798Z,28.30
2019-03-01T06:41:47.729Z,27.93
2019-03-01T06:44:26.853Z,8.53
2019-03-01T06:47:24.987Z,21.05
2019-03-01T06:50:04.367Z,15.32
2019-03-01T06:52:37.818Z,40.12
2019-03-01T06:55:14.334Z,42.70
2019-03-01T06:57:47.876Z,36.05
2019-03-01T07:00:21.638Z,34.55
2019-03-01T07:02:57.058Z,35.38
2019-03-01T07:05:31.127Z,28.60
2019-03-01T07:08:04.931Z,44.35
2019-03-01T07:10:38.662Z,41.53
2019-03-01T07:13:12.491Z,15.55
2019-03-01T07:15:46.819Z,22.35
2019-03-01T07:18:20.547Z,40.70
2019-03-01T07:20:58.863Z,40.63
2019-03-01T07:23:36.713Z,32.10
2019-03-01T07:26:07.651Z,19.20
2019-03-01T07:28:42.893Z,11.28
2019-03-01T07:31:16.788Z,31.62
2019-03-01T07:33:50.585Z,16.20
2019-03-01T07:36:24.830Z,23.02
2019-03-01T07:38:58.244Z,31.87
2019-03-01T07:41:33.201Z,23.40
2019-03-01T07:44:06.574Z,24.00
2019-03-01T07:46:52.393Z,29.32
2019-03-01T07:49:25.740Z,26.55
2019-03-01T07:52:04.998Z,10.00
2019-03-01T07:54:39.685Z,22.15
2019-03-01T07:57:25.058Z,19.87
2019-03-01T08:00:01.938Z,14.95
2019-03-01T08:02:42.532Z,17.60
2019-03-01T08:05:20.483Z,21.70
2019-03-01T08:08:02.526Z,30.05
2019-03-01T08:10:35.652Z,21.82
2019-03-01T08:13:14.712Z,18.55
2019-03-01T08:15:46.933Z,19.17
2019-03-01T08:18:20.950Z,19.05
2019-03-01T08:20:55.816Z,10.35
2019-03-01T08:23:31.697Z,18.92
2019-03-01T08:26:05.175Z,7.78
2019-03-01T08:28:38.718Z,25.90
2019-03-01T08:31:12.738Z,14.95
2019-03-01T08:33:46.648Z,23.30
2019-03-01T08:36:20.620Z,20.68
2019-03-01T08:38:54.628Z,23.77
2019-03-01T08:41:28.156Z,16.02
2019-03-01T08:44:02.870Z,17.30
2019-03-01T08:46:45.634Z,19.85
2019-03-01T08:49:25.731Z,9.68
2019-03-01T08:52:02.418Z,11.50
2019-03-01T08:54:43.582Z,21.65
2019-03-01T08:57:22.605Z,15.58
2019-03-01T09:00:03.656Z,21.37
2019-03-01T09:02:43.818Z,12.50
2019-03-01T09:05:26.257Z,16.93
2019-03-01T09:08:07.574Z,16.25
2019-03-01T09:10:44.313Z,7.20
2019-03-01T09:13:23.723Z,19.85
2019-03-01T09:16:12.108Z,24.27
2019-03-01T09:18:56.266Z,15.10
2019-03-01T09:21:39.556Z,8.10
2019-03-01T09:24:15.863Z,14.38
2019-03-01T09:26:55.215Z,7.05
2019-03-01T09:29:43.793Z,9.95
2019-03-01T09:32:20.972Z,10.53
2019-03-01T09:34:59.750Z,20.15
2019-03-01T09:37:51.878Z,3.47
2019-03-01T09:40:30.170Z,8.25
2019-03-01T09:43:08.545Z,4.62
2019-03-01T09:45:51.238Z,2.85
2019-03-01T09:51:11.488Z,28.12
2019-03-01T09:53:50.867Z,15.55
2019-03-01T09:56:30.587Z,3.80
2019-03-01T09:59:09.845Z,16.35
2019-03-01T10:01:51.030Z,2.00
2019-03-01T10:04:29.207Z,12.93
2019-03-01T10:07:08.849Z,23.87
2019-03-01T10:09:57.603Z,15.30
2019-03-01T10:12:34.520Z,24.72
2019-03-01T10:15:15.408Z,8.50
2019-03-01T10:17:52.808Z,14.87
2019-03-01T10:20:29.710Z,13.25
2019-03-01T10:23:14.485Z,15.50
2019-03-01T10:25:53.461Z,25.20
2019-03-01T10:28:31.986Z,27.75
2019-03-01T10:31:13.153Z,36.95
2019-03-01T10:33:53.461Z,52.60
2019-03-01T10:36:38.046Z,51.70
2019-03-01T10:39:16.446Z,35.28
2019-03-01T10:42:06.022Z,38.75
2019-03-01T10:44:44.185Z,43.75
2019-03-01T10:47:27.813Z,39.58
2019-03-01T10:50:09.920Z,49.42
2019-03-01T10:52:50.585Z,36.05
2019-03-01T10:55:29.008Z,51.50
2019-03-01T10:58:03.346Z,56.40
2019-03-01T11:00:38.069Z,37.90
2019-03-01T11:03:16.887Z,52.93
2019-03-01T11:05:52.919Z,42.58
2019-03-01T11:08:25.116Z,62.60
2019-03-01T11:10:59.181Z,53.80
2019-03-01T11:13:33.504Z,33.00
2019-03-01T11:16:07.568Z,79.72
2019-03-01T11:18:42.908Z,44.63
2019-03-01T11:21:18.183Z,40.10
2019-03-01T11:23:55.668Z,41.02
2019-03-01T11:26:29.545Z,54.50
2019-03-01T11:29:15.794Z,54.33
2019-03-01T11:31:58.256Z,51.25
2019-03-01T11:34:37.096Z,46.02
2019-03-01T11:37:15.941Z,51.25
2019-03-01T11:39:57.863Z,67.97
2019-03-01T11:42:33.867Z,51.15
2019-03-01T11:45:12.980Z,50.78
2019-03-01T11:48:06.461Z,47.90
2019-03-01T11:50:53.688Z,58.73
2019-03-01T11:53:33.231Z,62.98
2019-03-01T11:56:29.400Z,62.03
2019-03-01T11:59:07.011Z,59.55
2019-03-01T12:01:42.468Z,58.40
2019-03-01T12:04:16.619Z,59.77
2019-03-01T12:06:49.904Z,54.55
2019-03-01T12:09:25.211Z,43.40
2019-03-01T12:11:58.777Z,54.27
2019-03-01T12:14:33.171Z,25.80
2019-03-01T12:17:07.941Z,41.35
2019-03-01T12:19:42.448Z,41.55
2019-03-01T12:22:17.385Z,24.05
2019-03-01T12:24:51.987Z,61.23
2019-03-01T12:27:26.406Z,45.17
2019-03-01T12:30:09.842Z,45.58
2019-03-01T12:32:54.505Z,48.48
2019-03-01T12:35:35.599Z,56.20
2019-03-01T12:38:10.143Z,34.27
2019-03-01T12:40:49.871Z,52.62
2019-03-01T12:43:31.578Z,49.65
2019-03-01T12:46:25.327Z,58.20
2019-03-01T12:49:06.197Z,52.15
2019-03-01T12:51:49.680Z,48.17
2019-03-01T12:54:33.490Z,47.38
2019-03-01T12:57:11.972Z,50.90
2019-03-01T12:59:58.870Z,35.20
2019-03-01T13:02:36.691Z,52.78
2019-03-01T13:05:14.075Z,48.83
2019-03-01T13:07:50.541Z,34.48
2019-03-01T13:10:29.167Z,16.70
2019-03-01T13:13:07.953Z,42.50
2019-03-01T13:15:40.549Z,33.98
2019-03-01T13:18:16.745Z,34.43
2019-03-01T13:20:49.762Z,18.48
2019-03-01T13:23:23.989Z,50.67
2019-03-01T13:26:02.792Z,25.70
2019-03-01T13:28:34.886Z,37.28
2019-03-01T13:31:11.376Z,54.73
2019-03-01T13:33:46.732Z,47.55
2019-03-01T13:36:20.731Z,47.45
2019-03-01T13:38:54.669Z,43.65
2019-03-01T13:41:28.361Z,41.13
2019-03-01T13:44:04.308Z,55.52
2019-03-01T13:46:45.660Z,53.45
2019-03-01T13:49:42.779Z,51.65
2019-03-01T13:52:31.603Z,55.25
2019-03-01T13:55:18.667Z,36.88
2019-03-01T13:58:02.624Z,41.98
2019-03-01T14:00:45.651Z,41.00
2019-03-01T14:03:27.891Z,49.23
2019-03-01T14:06:02.510Z,42.98
2019-03-01T14:08:42.758Z,41.18
2019-03-01T14:11:28.597Z,55.10
2019-03-01T14:14:02.763Z,43.52
2019-03-01T14:16:36.402Z,43.85
2019-03-01T14:19:10.576Z,55.40
2019-03-01T14:21:44.325Z,64.80
2019-03-01T14:24:18.167Z,27.48
2019-03-01T14:26:53.870Z,50.28
2019-03-01T14:29:27.975Z,39.30
2019-03-01T14:32:02.041Z,49.58
2019-03-01T14:34:37.333Z,51.85
2019-03-01T14:37:18.365Z,58.58
2019-03-01T14:39:51.914Z,33.75
2019-03-01T14:42:33.328Z,35.50
2019-03-01T14:45:10.970Z,36.20
2019-03-01T14:47:54.271Z,44.35
2019-03-01T14:50:43.345Z,51.63
2019-03-01T14:53:25.565Z,42.08
2019-03-01T14:56:15.752Z,50.35
2019-03-01T14:59:08.469Z,56.90
2019-03-01T15:01:46.944Z,41.73
2019-03-01T15:04:28.834Z,49.90
2019-03-01T15:07:09.410Z,57.98
2019-03-01T15:09:49.544Z,48.85
2019-03-01T15:12:31.307Z,49.63
2019-03-01T15:17:47.673Z,45.98
2019-03-01T15:20:26.155Z,42.45
2019-03-01T15:23:05.510Z,62.25
2019-03-01T15:25:49.754Z,47.85
2019-03-01T15:28:24.669Z,43.00
2019-03-01T15:31:13.859Z,55.45
2019-03-01T15:33:56.132Z,38.23
2019-03-01T16:09:48.526Z,50.58
2019-03-01T16:12:23.428Z,50.03
2019-03-01T16:15:23.665Z,45.10
2019-03-01T16:18:00.935Z,49.13
2019-03-01T16:20:35.829Z,47.53
2019-03-01T16:23:10.030Z,52.85
2019-03-01T16:25:44.633Z,55.15
2019-03-01T16:28:18.563Z,40.43
2019-03-01T16:30:59.716Z,53.90
2019-03-01T16:33:33.936Z,57.78
2019-03-01T16:36:09.576Z,34.98
2019-03-01T16:38:47.571Z,32.75
2019-03-01T16:41:18.765Z,62.15
2019-03-01T16:43:52.938Z,40.00
2019-03-01T16:46:28.480Z,50.08
2019-03-01T16:49:02.564Z,61.55
2019-03-01T16:51:36.628Z,55.20
2019-03-01T16:54:15.379Z,44.45
2019-03-01T16:56:46.479Z,50.12
2019-03-01T16:59:20.477Z,47.60
2019-03-01T17:01:54.149Z,39.23
2019-03-01T17:04:28.272Z,50.30
2019-03-01T17:07:04.384Z,55.08
2019-03-01T17:09:37.382Z,47.45
2019-03-01T17:12:13.961Z,44.83
2019-03-01T17:14:45.786Z,53.85
2019-03-01T17:17:19.732Z,43.55
2019-03-01T17:19:58.618Z,52.70
2019-03-01T17:22:33.524Z,47.05
2019-03-01T17:25:07.671Z,40.05
2019-03-01T17:27:43.391Z,62.73
2019-03-01T17:30:18.903Z,57.23
2019-03-01T17:32:53.081Z,86.02
2019-03-01T17:35:27.038Z,69.70
2019-03-01T17:38:04.003Z,86.70
2019-03-01T17:40:36.962Z,60.12
2019-03-01T17:43:11.704Z,58.40
2019-03-01T17:45:45.334Z,52.67
2019-03-01T17:48:22.218Z,81.28
2019-03-01T17:50:55.081Z,66.77
2019-03-01T17:53:29.055Z,116.77
2019-03-01T17:56:02.367Z,55.63
2019-03-01T17:58:35.944Z,69.85
2019-03-01T18:01:09.303Z,67.80
2019-03-01T18:03:42.959Z,60.43
2019-03-01T18:06:17.917Z,72.10
2019-03-01T18:08:51.694Z,54.10
2019-03-01T18:11:26.110Z,68.55
2019-03-01T18:14:00.794Z,52.98
2019-03-01T18:16:35.305Z,58.60
2019-03-01T18:19:23.800Z,76.37
2019-03-01T18:21:56.329Z,58.68
2019-03-01T18:24:29.747Z,53.87
2019-03-01T18:27:03.438Z,68.33
2019-03-01T18:29:39.046Z,53.68
2019-03-01T18:32:12.110Z,54.70
2019-03-01T18:34:46.258Z,53.98
2019-03-01T18:37:20.101Z,65.28
2019-03-01T18:39:53.806Z,57.30
2019-03-01T18:42:28.097Z,56.63
2019-03-01T18:45:03.611Z,55.92
2019-03-01T18:47:36.450Z,43.25
2019-03-01T18:50:15.170Z,46.83
2019-03-01T18:52:49.622Z,53.63
2019-03-01T18:55:24.621Z,48.55
2019-03-01T18:57:58.326Z,55.17
2019-03-01T19:00:35.834Z,43.58
2019-03-01T19:03:08.831Z,40.85
2019-03-01T19:05:46.141Z,50.83
2019-03-01T19:08:18.147Z,50.20
2019-03-01T19:10:54.445Z,41.65
2019-03-01T19:13:27.023Z,38.60
2019-03-01T19:16:00.881Z,40.90
2019-03-01T19:18:34.353Z,61.50
2019-03-01T19:21:08.136Z,48.83
2019-03-01T19:23:41.494Z,52.38
2019-03-01T19:26:15.355Z,44.45
2019-03-01T19:28:49.264Z,50.43
2019-03-01T19:31:24.520Z,45.78
2019-03-01T19:33:57.588Z,51.50
2019-03-01T19:36:35.493Z,45.33
2019-03-01T19:39:08.132Z,51.00
2019-03-01T19:41:42.385Z,37.38
2019-03-01T19:44:16.399Z,32.15
2019-03-01T19:46:51.434Z,43.28
2019-03-01T19:49:25.317Z,41.58
2019-03-01T19:51:59.681Z,42.90
2019-03-01T19:54:35.709Z,49.33
2019-03-01T19:57:09.729Z,46.63
2019-03-01T19:59:46.519Z,54.77
2019-03-01T20:02:18.465Z,39.13
2019-03-01T20:04:52.582Z,56.73
2019-03-01T20:07:26.704Z,44.40
2019-03-01T20:10:00.299Z,42.53
2019-03-01T20:12:36.871Z,44.50
2019-03-01T20:15:11.196Z,36.53
2019-03-01T20:17:44.832Z,44.95
2019-03-01T20:20:20.069Z,42.03
2019-03-01T20:22:54.288Z,34.73
2019-03-01T20:25:28.032Z,38.40
2019-03-01T20:28:01.580Z,46.45
2019-03-01T20:30:35.981Z,44.50
2019-03-01T20:33:09.881Z,44.50
2019-03-01T20:35:43.613Z,36.05
2019-03-01T20:38:17.265Z,33.08
2019-03-01T20:40:51.447Z,35.30
2019-03-01T20:43:24.725Z,32.00
2019-03-01T20:45:58.464Z,40.45
2019-03-01T20:48:32.362Z,33.45
2019-03-01T20:51:06.579Z,42.85
2019-03-01T20:53:40.345Z,39.42
2019-03-01T20:56:16.922Z,48.00
2019-03-01T20:58:49.188Z,41.92
2019-03-01T21:01:22.953Z,42.98
2019-03-01T21:03:56.710Z,38.78
2019-03-01T21:06:30.149Z,39.20
2019-03-01T21:09:04.139Z,38.00
2019-03-01T21:11:41.661Z,35.58
2019-03-01T21:14:15.728Z,38.58
2019-03-01T21:16:49.469Z,48.10
2019-03-01T21:19:23.041Z,43.00
2019-03-01T21:21:56.558Z,45.00
2019-03-01T21:24:31.940Z,38.80
2019-03-01T21:27:04.740Z,42.48
2019-03-01T21:29:57.960Z,37.75
2019-03-01T21:32:31.759Z,40.23
2019-03-01T21:35:06.199Z,42.27
2019-03-01T21:37:40.007Z,45.67
2019-03-01T21:40:14.757Z,32.88
2019-03-01T21:42:48.697Z,43.15
2019-03-01T21:45:25.834Z,50.78
2019-03-01T21:47:59.625Z,45.88
2019-03-01T21:50:33.109Z,36.05
2019-03-01T21:53:06.778Z,41.65
2019-03-01T21:55:40.282Z,43.80
2019-03-01T21:58:14.134Z,39.95
2019-03-01T22:00:47.597Z,45.63
2019-03-01T22:03:24.774Z,33.23
2019-03-01T22:05:57.770Z,39.33
2019-03-01T22:08:31.382Z,34.25
2019-03-01T22:11:04.866Z,51.95
2019-03-01T22:13:38.577Z,38.25
2019-03-01T22:16:13.016Z,34.75
2019-03-01T22:18:46.786Z,43.13
2019-03-01T22:21:22.656Z,37.35
2019-03-01T22:23:55.278Z,46.95
2019-03-01T22:26:28.722Z,39.18
2019-03-01T22:29:02.586Z,38.28
2019-03-01T22:31:36.865Z,44.03
2019-03-01T22:34:10.740Z,38.78
2019-03-01T22:36:44.590Z,36.73
2019-03-01T22:39:18.906Z,42.45
2019-03-01T22:41:52.930Z,37.17
2019-03-01T22:44:27.143Z,36.73
2019-03-01T22:47:01.590Z,38.25
2019-03-01T22:49:35.663Z,36.15
2019-03-01T22:52:30.342Z,38.85
2019-03-01T22:55:04.435Z,35.58
2019-03-01T22:57:38.505Z,26.93
2019-03-01T23:00:54.527Z,34.25
2019-03-01T23:03:27.976Z,45.00
2019-03-01T23:06:01.549Z,43.13
2019-03-01T23:08:35.484Z,46.10
2019-03-01T23:11:10.736Z,39.70
2019-03-01T23:13:44.237Z,41.10
2019-03-01T23:16:18.905Z,39.42
2019-03-01T23:18:56.659Z,39.00
2019-03-01T23:21:27.240Z,36.17
2019-03-01T23:24:00.886Z,35.35
2019-03-01T23:26:34.814Z,31.07
2019-03-01T23:29:08.287Z,39.50
2019-03-01T23:31:42.255Z,34.70
2019-03-01T23:34:15.621Z,32.90
2019-03-01T23:36:49.601Z,32.78
2019-03-01T23:39:24.606Z,29.55
2019-03-01T23:41:58.645Z,32.33
2019-03-01T23:44:32.109Z,44.38
2019-03-01T23:47:07.303Z,41.33
2019-03-01T23:49:40.714Z,36.25
2019-03-01T23:52:14.468Z,34.35
2019-03-01T23:54:47.899Z,38.48
2019-03-01T23:57:21.434Z,30.57
